Time;durP1;ratioP1;P1;durP2;ratioP2;P2;SDS_P1;SDS_P2;PMS_P1;PMS_P2;Temp;Humidity;BMP_temperature;BMP_pressure;BME280_temperature;BME280_humidity;BME280_pressure;Samples;Min_cycle;Max_cycle;Signal;HPM_P1;HPM_P2
2023/02/06 00:02:13;;;;;;;38.10;15.95;;;;;;;;;;5087116;28;20073;-57
2023/02/06 00:04:39;;;;;;;30.38;16.05;;;;;;;;;;5066766;28;20438;-57
2023/02/06 00:07:05;;;;;;;27.63;15.50;;;;;;;;;;5068489;28;20073;-57
2023/02/06 00:09:31;;;;;;;30.92;16.20;;;;;;;;;;5070094;28;20073;-54
2023/02/06 00:11:57;;;;;;;38.00;15.60;;;;;;;;;;5056586;28;20032;-54
2023/02/06 00:14:23;;;;;;;33.90;14.52;;;;;;;;;;5054438;28;20178;-59
2023/02/06 00:16:49;;;;;;;34.92;15.68;;;;;;;;;;5075093;28;20743;-59
2023/02/06 00:19:15;;;;;;;37.58;15.93;;;;;;;;;;5079932;28;20036;-57
2023/02/06 00:21:41;;;;;;;35.28;16.08;;;;;;;;;;5073846;28;20056;-57
2023/02/06 00:24:07;;;;;;;32.75;15.65;;;;;;;;;;5073190;28;20050;-59
2023/02/06 00:26:33;;;;;;;42.80;15.32;;;;;;;;;;5094162;28;20388;-57
2023/02/06 00:28:59;;;;;;;34.65;15.63;;;;;;;;;;5093753;28;20032;-57
2023/02/06 00:31:25;;;;;;;27.30;13.73;;;;;;;;;;5073883;28;20039;-59
2023/02/06 00:33:51;;;;;;;37.88;14.30;;;;;;;;;;5073323;28;20032;-56
2023/02/06 00:36:17;;;;;;;42.40;15.68;;;;;;;;;;5074069;28;20366;-58
2023/02/06 00:38:43;;;;;;;34.78;15.70;;;;;;;;;;5073959;28;20035;-59
2023/02/06 00:41:10;;;;;;;30.95;13.75;;;;;;;;;;5055936;28;20130;-58
2023/02/06 00:43:36;;;;;;;32.42;14.40;;;;;;;;;;5073352;28;20024;-58
2023/02/06 00:46:02;;;;;;;43.45;16.55;;;;;;;;;;5079430;28;20095;-58
2023/02/06 00:48:28;;;;;;;34.42;15.13;;;;;;;;;;5076066;28;20112;-59
2023/02/06 00:50:54;;;;;;;32.38;14.10;;;;;;;;;;5094351;28;20134;-57
2023/02/06 00:53:21;;;;;;;35.53;14.57;;;;;;;;;;5093505;28;20027;-58
2023/02/06 00:55:47;;;;;;;39.25;14.70;;;;;;;;;;5094061;28;20059;-57
2023/02/06 00:58:13;;;;;;;30.98;14.00;;;;;;;;;;5094453;28;20024;-57
2023/02/06 01:00:39;;;;;;;30.80;13.20;;;;;;;;;;5087321;28;20050;-57
2023/02/06 01:03:05;;;;;;;32.60;13.98;;;;;;;;;;5073656;28;20052;-57
2023/02/06 01:05:31;;;;;;;35.83;14.80;;;;;;;;;;5094121;28;20480;-55
2023/02/06 01:07:57;;;;;;;30.13;15.02;;;;;;;;;;5094260;28;20104;-55
2023/02/06 01:10:23;;;;;;;33.55;13.98;;;;;;;;;;5093588;28;20395;-59
2023/02/06 01:12:48;;;;;;;38.40;14.38;;;;;;;;;;5093395;28;20024;-56
2023/02/06 01:15:14;;;;;;;36.03;15.02;;;;;;;;;;5084112;28;20504;-58
2023/02/06 01:17:41;;;;;;;33.75;14.85;;;;;;;;;;5072867;28;20024;-59
2023/02/06 01:20:08;;;;;;;35.83;14.52;;;;;;;;;;5072644;28;20090;-57
2023/02/06 01:22:35;;;;;;;40.65;15.80;;;;;;;;;;5055070;28;20029;-57
2023/02/06 01:25:02;;;;;;;35.30;14.20;;;;;;;;;;5072301;28;20437;-55
2023/02/06 01:27:28;;;;;;;37.90;14.98;;;;;;;;;;5073174;28;20048;-56
2023/02/06 01:29:54;;;;;;;40.13;15.00;;;;;;;;;;5072860;28;20047;-59
2023/02/06 01:32:20;;;;;;;44.33;16.88;;;;;;;;;;5073278;28;20119;-58
2023/02/06 01:34:46;;;;;;;36.65;16.95;;;;;;;;;;5080256;28;20108;-54
2023/02/06 01:37:12;;;;;;;45.58;16.27;;;;;;;;;;5072856;28;20366;-55
2023/02/06 01:39:38;;;;;;;36.40;14.73;;;;;;;;;;5072937;28;20024;-54
2023/02/06 01:42:04;;;;;;;33.78;13.95;;;;;;;;;;5081733;28;20237;-56
2023/02/06 01:44:31;;;;;;;32.47;15.77;;;;;;;;;;5087991;28;20020;-58
2023/02/06 01:46:57;;;;;;;39.75;16.08;;;;;;;;;;5092760;28;20049;-59
2023/02/06 01:49:26;;;;;;;47.25;15.35;;;;;;;;;;5092789;28;20024;-57
2023/02/06 01:52:07;;;;;;;36.55;15.13;;;;;;;;;;5074281;28;20032;-58
2023/02/06 01:54:33;;;;;;;37.38;14.32;;;;;;;;;;5092080;28;20487;-58
2023/02/06 01:57:01;;;;;;;35.80;14.20;;;;;;;;;;5072590;28;20032;-59
2023/02/06 01:59:27;;;;;;;38.42;14.82;;;;;;;;;;5072527;28;20020;-58
2023/02/06 02:01:53;;;;;;;38.40;15.52;;;;;;;;;;5072169;28;20057;-59
2023/02/06 02:04:20;;;;;;;47.15;18.48;;;;;;;;;;5053822;28;20036;-56
2023/02/06 02:06:51;;;;;;;35.50;14.95;;;;;;;;;;5072341;28;20096;-58
2023/02/06 02:09:18;;;;;;;33.05;16.65;;;;;;;;;;5054475;28;20020;-57
2023/02/06 02:11:44;;;;;;;36.83;16.13;;;;;;;;;;5084190;28;20064;-54
2023/02/06 02:14:12;;;;;;;33.63;14.98;;;;;;;;;;5091603;28;20099;-59
2023/02/06 02:17:00;;;;;;;34.55;16.27;;;;;;;;;;5092196;28;20024;-58
2023/02/06 02:19:32;;;;;;;37.70;15.15;;;;;;;;;;5074204;28;20078;-59
2023/02/06 02:22:07;;;;;;;36.35;14.75;;;;;;;;;;5092189;28;20028;-57
2023/02/06 02:24:33;;;;;;;39.58;15.80;;;;;;;;;;5091613;28;20054;-55
2023/02/06 02:27:08;;;;;;;35.40;16.02;;;;;;;;;;5092204;28;20086;-57
2023/02/06 02:29:34;;;;;;;44.45;15.73;;;;;;;;;;5092019;28;20507;-58
2023/02/06 02:32:09;;;;;;;33.25;13.57;;;;;;;;;;5085763;28;20052;-58
2023/02/06 02:34:47;;;;;;;34.60;15.18;;;;;;;;;;5071091;28;20400;-55
2023/02/06 02:37:26;;;;;;;47.20;15.85;;;;;;;;;;5071888;28;20109;-57
2023/02/06 02:40:01;;;;;;;42.60;15.00;;;;;;;;;;5071839;28;20033;-57
2023/02/06 02:42:30;;;;;;;41.15;16.95;;;;;;;;;;5071687;28;20118;-56
2023/02/06 02:45:03;;;;;;;37.45;15.23;;;;;;;;;;5053047;28;20111;-55
2023/02/06 02:47:31;;;;;;;49.30;16.75;;;;;;;;;;5071792;28;20024;-57
2023/02/06 02:49:59;;;;;;;;;;;;;;;;;;5072245;28;20021;-58
2023/02/06 02:52:24;;;;;;;29.98;14.82;;;;;;;;;;5071783;28;19908;-53
2023/02/06 02:54:50;;;;;;;30.85;14.80;;;;;;;;;;5071328;28;20031;-54
2023/02/06 02:57:27;;;;;;;32.45;15.60;;;;;;;;;;5071526;28;20103;-53
2023/02/06 02:59:55;;;;;;;35.63;15.40;;;;;;;;;;5078321;28;20035;-57
2023/02/06 03:02:25;;;;;;;30.40;15.73;;;;;;;;;;5091829;28;20028;-55
2023/02/06 03:04:59;;;;;;;39.47;17.42;;;;;;;;;;5091126;28;20039;-54
2023/02/06 03:07:34;;;;;;;34.55;16.40;;;;;;;;;;5091822;28;20032;-57
2023/02/06 03:10:03;;;;;;;35.67;15.10;;;;;;;;;;5091645;28;20021;-57
2023/02/06 03:12:29;;;;;;;36.58;15.73;;;;;;;;;;5073564;28;20020;-58
2023/02/06 03:15:08;;;;;;;39.95;16.80;;;;;;;;;;5090987;28;20042;-56
2023/02/06 03:17:49;;;;;;;33.25;15.63;;;;;;;;;;5091765;28;20020;-57
2023/02/06 03:20:16;;;;;;;46.60;16.88;;;;;;;;;;5091316;28;20024;-56
2023/02/06 03:22:44;;;;;;;40.40;15.63;;;;;;;;;;5091641;28;20027;-57
2023/02/06 03:25:11;;;;;;;49.30;17.02;;;;;;;;;;5090925;28;20021;-57
2023/02/06 03:27:39;;;;;;;36.67;16.65;;;;;;;;;;5090645;28;20074;-56
2023/02/06 03:30:05;;;;;;;37.20;15.13;;;;;;;;;;5090600;28;20557;-58
2023/02/06 03:32:34;;;;;;;41.03;17.65;;;;;;;;;;5075278;28;20033;-56
2023/02/06 03:35:00;;;;;;;50.45;15.63;;;;;;;;;;5070563;28;20396;-57
2023/02/06 03:37:26;;;;;;;40.47;15.77;;;;;;;;;;5071263;28;20021;-58
2023/02/06 03:39:52;;;;;;;42.45;16.35;;;;;;;;;;5071130;28;20055;-57
2023/02/06 03:42:18;;;;;;;33.03;15.25;;;;;;;;;;5055229;28;20056;-58
2023/02/06 03:44:47;;;;;;;37.83;16.35;;;;;;;;;;5074337;28;20028;-58
2023/02/06 03:47:13;;;;;;;;;;;;;;;;;;5075606;28;20082;-56
2023/02/06 03:49:40;;;;;;;35.10;15.45;;;;;;;;;;5075111;28;19908;-56
2023/02/06 03:52:12;;;;;;;35.13;15.20;;;;;;;;;;5074294;28;20044;-58
2023/02/06 03:54:41;;;;;;;34.47;15.27;;;;;;;;;;5074168;28;20119;-57
2023/02/06 03:57:10;;;;;;;38.00;16.77;;;;;;;;;;5056769;28;20024;-57
2023/02/06 03:59:35;;;;;;;61.05;30.38;;;;;;;;;;5074535;28;20048;-58
2023/02/06 04:02:03;;;;;;;34.17;18.42;;;;;;;;;;5074412;28;20068;-58
2023/02/06 04:04:31;;;;;;;40.75;17.50;;;;;;;;;;5074192;28;20438;-57
2023/02/06 04:06:59;;;;;;;37.15;18.25;;;;;;;;;;5074504;28;20546;-55
2023/02/06 04:09:25;;;;;;;32.33;17.92;;;;;;;;;;5074749;28;20025;-55
2023/02/06 04:11:51;;;;;;;40.38;18.20;;;;;;;;;;5074743;28;20514;-54
2023/02/06 04:14:17;;;;;;;32.65;16.80;;;;;;;;;;5073983;28;20025;-57
2023/02/06 04:16:43;;;;;;;37.22;16.70;;;;;;;;;;5074523;28;20063;-56
2023/02/06 04:19:09;;;;;;;39.20;16.02;;;;;;;;;;5074477;28;20419;-57
2023/02/06 04:21:35;;;;;;;34.65;17.02;;;;;;;;;;5090638;28;20065;-57
2023/02/06 04:24:01;;;;;;;36.00;17.85;;;;;;;;;;5093931;28;20104;-57
2023/02/06 04:26:27;;;;;;;36.05;17.05;;;;;;;;;;5076488;28;20026;-55
2023/02/06 04:28:53;;;;;;;36.30;16.58;;;;;;;;;;5094456;28;20096;-53
2023/02/06 04:31:19;;;;;;;36.35;16.05;;;;;;;;;;5094079;28;20032;-57
2023/02/06 04:33:45;;;;;;;42.97;18.08;;;;;;;;;;5093622;28;20070;-57
2023/02/06 04:36:11;;;;;;;40.75;17.80;;;;;;;;;;5094377;28;20058;-57
2023/02/06 04:38:37;;;;;;;37.95;16.65;;;;;;;;;;5094282;28;20051;-56
2023/02/06 04:41:04;;;;;;;43.13;18.55;;;;;;;;;;5075954;28;20028;-59
2023/02/06 04:43:30;;;;;;;34.97;17.65;;;;;;;;;;5093348;28;20020;-57
2023/02/06 04:45:56;;;;;;;37.22;17.58;;;;;;;;;;5076120;28;20024;-56
2023/02/06 04:48:22;;;;;;;38.85;17.40;;;;;;;;;;5076219;28;20032;-58
2023/02/06 04:50:49;;;;;;;41.30;16.20;;;;;;;;;;5092202;28;20053;-57
2023/02/06 04:53:15;;;;;;;60.92;20.08;;;;;;;;;;5092230;28;20032;-58
2023/02/06 04:55:41;;;;;;;45.67;19.02;;;;;;;;;;5093731;28;20484;-56
2023/02/06 04:58:07;;;;;;;38.13;16.98;;;;;;;;;;5093777;28;20030;-57
2023/02/06 05:00:33;;;;;;;34.58;18.70;;;;;;;;;;5075584;28;20145;-58
2023/02/06 05:02:59;;;;;;;41.70;17.80;;;;;;;;;;5073465;28;20033;-55
2023/02/06 05:05:25;;;;;;;32.28;18.05;;;;;;;;;;5072989;28;20038;-58
2023/02/06 05:07:51;;;;;;;38.25;18.00;;;;;;;;;;5073236;28;20492;-58
2023/02/06 05:10:17;;;;;;;45.38;17.98;;;;;;;;;;5073312;28;20112;-58
2023/02/06 05:12:43;;;;;;;41.00;20.10;;;;;;;;;;5073235;28;20044;-53
2023/02/06 05:15:10;;;;;;;43.92;19.55;;;;;;;;;;5054626;28;20020;-55
2023/02/06 05:17:36;;;;;;;45.97;19.40;;;;;;;;;;5072844;28;20085;-58
2023/02/06 05:20:02;;;;;;;41.80;18.48;;;;;;;;;;5089699;28;20115;-58
2023/02/06 05:22:28;;;;;;;56.90;20.23;;;;;;;;;;5093242;28;20472;-57
2023/02/06 05:24:54;;;;;;;45.65;19.42;;;;;;;;;;5092533;28;20024;-58
2023/02/06 05:27:20;;;;;;;57.38;20.52;;;;;;;;;;5093193;28;20396;-55
2023/02/06 05:29:46;;;;;;;47.60;21.35;;;;;;;;;;5093186;28;20547;-59
2023/02/06 05:32:12;;;;;;;60.20;20.10;;;;;;;;;;5093020;28;20114;-58
2023/02/06 05:34:38;;;;;;;36.33;18.40;;;;;;;;;;5085611;28;20038;-56
2023/02/06 05:37:04;;;;;;;42.80;20.27;;;;;;;;;;5072771;28;20028;-58
2023/02/06 05:39:30;;;;;;;61.53;21.67;;;;;;;;;;5072640;28;20097;-55
2023/02/06 05:41:56;;;;;;;88.28;21.85;;;;;;;;;;5072579;28;20121;-56
2023/02/06 05:44:22;;;;;;;34.97;19.95;;;;;;;;;;5054248;28;20111;-57
2023/02/06 05:46:48;;;;;;;48.35;19.90;;;;;;;;;;5073432;28;20422;-58
2023/02/06 05:49:14;;;;;;;38.58;19.30;;;;;;;;;;5072402;28;20025;-59
2023/02/06 05:51:40;;;;;;;60.58;21.33;;;;;;;;;;5072244;28;20040;-59
2023/02/06 05:54:06;;;;;;;57.05;21.30;;;;;;;;;;5071483;28;20082;-59
2023/02/06 05:56:32;;;;;;;62.63;23.83;;;;;;;;;;5072256;28;20038;-58
2023/02/06 05:58:58;;;;;;;40.10;19.55;;;;;;;;;;5072103;28;20430;-58
2023/02/06 06:01:24;;;;;;;53.30;21.88;;;;;;;;;;5070882;28;20020;-56
2023/02/06 06:03:50;;;;;;;50.55;20.98;;;;;;;;;;5069960;28;20021;-57
2023/02/06 06:06:16;;;;;;;48.33;21.13;;;;;;;;;;5071890;28;20082;-55
2023/02/06 06:08:42;;;;;;;33.25;19.13;;;;;;;;;;5072014;28;20021;-55
2023/02/06 06:11:08;;;;;;;37.55;19.38;;;;;;;;;;5073019;28;20119;-57
2023/02/06 06:13:34;;;;;;;33.55;19.92;;;;;;;;;;5071181;28;20056;-57
2023/02/06 06:16:00;;;;;;;38.22;18.75;;;;;;;;;;5054908;28;20025;-55
2023/02/06 06:18:26;;;;;;;71.20;21.98;;;;;;;;;;5071747;28;20036;-56
2023/02/06 06:20:53;;;;;;;44.08;21.67;;;;;;;;;;5053673;28;20025;-55
2023/02/06 06:23:19;;;;;;;40.38;20.13;;;;;;;;;;5090623;28;20030;-56
2023/02/06 06:25:46;;;;;;;48.28;21.92;;;;;;;;;;5091538;28;20028;-56
2023/02/06 06:28:12;;;;;;;58.38;21.23;;;;;;;;;;5091666;28;20439;-58
2023/02/06 06:30:38;;;;;;;39.63;20.17;;;;;;;;;;5073619;28;20035;-58
2023/02/06 06:33:04;;;;;;;42.53;20.65;;;;;;;;;;5090873;28;20138;-55
2023/02/06 06:35:30;;;;;;;35.50;20.73;;;;;;;;;;5091642;28;20043;-57
2023/02/06 06:37:56;;;;;;;41.85;22.63;;;;;;;;;;5091374;28;20083;-57
2023/02/06 06:40:22;;;;;;;52.45;22.27;;;;;;;;;;5091123;28;20055;-55
2023/02/06 06:42:48;;;;;;;51.67;22.75;;;;;;;;;;5070820;28;20048;-56
2023/02/06 06:45:14;;;;;;;38.25;22.65;;;;;;;;;;5072659;28;20016;-57
2023/02/06 06:47:40;;;;;;;75.88;23.02;;;;;;;;;;5091229;28;20043;-55
2023/02/06 06:50:06;;;;;;;35.65;22.00;;;;;;;;;;5093576;28;20016;-55
2023/02/06 06:52:32;;;;;;;64.18;22.08;;;;;;;;;;5103801;28;20031;-57
2023/02/06 06:54:59;;;;;;;46.03;21.00;;;;;;;;;;5071595;28;20396;-53
2023/02/06 06:57:25;;;;;;;44.80;22.48;;;;;;;;;;5090673;28;20500;-58
2023/02/06 06:59:51;;;;;;;55.92;23.33;;;;;;;;;;5090914;28;20032;-57
2023/02/06 07:02:17;;;;;;;54.42;24.17;;;;;;;;;;5090861;28;20034;-57
2023/02/06 07:04:43;;;;;;;52.65;24.85;;;;;;;;;;5090469;28;20517;-55
2023/02/06 07:07:09;;;;;;;53.67;24.83;;;;;;;;;;5090988;28;20016;-57
2023/02/06 07:09:35;;;;;;;74.85;30.27;;;;;;;;;;5089981;28;20035;-59
2023/02/06 07:12:01;;;;;;;46.25;27.60;;;;;;;;;;5072435;28;20028;-54
2023/02/06 07:14:27;;;;;;;44.60;27.73;;;;;;;;;;5054977;28;20397;-56
2023/02/06 07:16:55;;;;;;;50.75;26.88;;;;;;;;;;5054331;28;20025;-54
2023/02/06 07:19:21;;;;;;;38.38;23.65;;;;;;;;;;5074859;28;20033;-55
2023/02/06 07:21:47;;;;;;;49.83;29.40;;;;;;;;;;5074887;28;20112;-55
2023/02/06 07:24:13;;;;;;;49.55;24.65;;;;;;;;;;5074663;28;20112;-58
2023/02/06 07:26:40;;;;;;;44.72;25.42;;;;;;;;;;5094872;28;20024;-57
2023/02/06 07:29:06;;;;;;;41.47;25.25;;;;;;;;;;5094456;28;20020;-58
2023/02/06 07:31:32;;;;;;;46.20;24.98;;;;;;;;;;5076296;28;20577;-56
2023/02/06 07:33:59;;;;;;;34.85;25.08;;;;;;;;;;5094222;28;20049;-55
2023/02/06 07:36:25;;;;;;;43.65;25.15;;;;;;;;;;5094766;28;20454;-54
2023/02/06 07:38:51;;;;;;;36.63;25.13;;;;;;;;;;5093821;28;20111;-55
2023/02/06 07:41:17;;;;;;;36.92;24.48;;;;;;;;;;5076722;28;20056;-58
2023/02/06 07:43:43;;;;;;;36.17;25.60;;;;;;;;;;5072830;28;20056;-58
2023/02/06 07:46:09;;;;;;;41.22;24.70;;;;;;;;;;5087507;28;20541;-59
2023/02/06 07:48:35;;;;;;;29.80;24.35;;;;;;;;;;5091694;28;20036;-56
2023/02/06 07:51:05;;;;;;;39.55;26.48;;;;;;;;;;5080378;28;20024;-57
2023/02/06 07:53:31;;;;;;;47.50;27.30;;;;;;;;;;5074749;28;20509;-59
2023/02/06 07:55:57;;;;;;;40.63;27.33;;;;;;;;;;5093828;28;20099;-59
2023/02/06 07:58:24;;;;;;;33.72;25.50;;;;;;;;;;5094053;28;20024;-59
2023/02/06 08:00:50;;;;;;;43.22;26.77;;;;;;;;;;5093166;28;20448;-58
2023/02/06 08:03:16;;;;;;;37.90;25.13;;;;;;;;;;5093548;28;20044;-57
2023/02/06 08:05:42;;;;;;;35.88;24.15;;;;;;;;;;5076428;28;20107;-59
2023/02/06 08:08:09;;;;;;;37.88;26.58;;;;;;;;;;5076220;28;20126;-57
2023/02/06 08:10:37;;;;;;;35.00;25.83;;;;;;;;;;5076283;28;20152;-57
2023/02/06 08:13:03;;;;;;;31.17;24.73;;;;;;;;;;5094303;28;20028;-55
2023/02/06 08:15:29;;;;;;;35.60;23.33;;;;;;;;;;5094518;28;20036;-57
2023/02/06 08:17:55;;;;;;;36.78;24.40;;;;;;;;;;5094751;28;20016;-57
2023/02/06 08:20:21;;;;;;;28.13;22.85;;;;;;;;;;5094040;28;20024;-55
2023/02/06 08:22:47;;;;;;;32.17;24.08;;;;;;;;;;5094369;28;20491;-56
2023/02/06 08:25:13;;;;;;;31.38;22.58;;;;;;;;;;5093501;28;20024;-57
2023/02/06 08:27:39;;;;;;;31.75;22.70;;;;;;;;;;5075830;28;20031;-57
2023/02/06 08:30:06;;;;;;;32.47;21.63;;;;;;;;;;5082420;28;20039;-57
2023/02/06 08:32:32;;;;;;;29.80;22.27;;;;;;;;;;5093985;28;20400;-59
2023/02/06 08:34:59;;;;;;;33.47;21.48;;;;;;;;;;5093301;28;20051;-57
2023/02/06 08:37:25;;;;;;;27.95;20.73;;;;;;;;;;5093884;28;20507;-57
2023/02/06 08:39:51;;;;;;;36.28;21.83;;;;;;;;;;5093582;28;20028;-58
2023/02/06 08:42:17;;;;;;;33.15;21.08;;;;;;;;;;5093708;28;20415;-59
2023/02/06 08:44:43;;;;;;;34.33;23.70;;;;;;;;;;5093001;28;20059;-58
2023/02/06 08:47:09;;;;;;;35.25;23.67;;;;;;;;;;5093394;28;20127;-59
2023/02/06 08:49:35;;;;;;;33.55;22.20;;;;;;;;;;5093369;28;20099;-59
2023/02/06 08:52:01;;;;;;;30.00;20.58;;;;;;;;;;5093170;28;20111;-60
2023/02/06 08:54:27;;;;;;;33.33;21.02;;;;;;;;;;5092678;28;20103;-59
2023/02/06 08:56:55;;;;;;;30.95;20.55;;;;;;;;;;5084683;28;20454;-57
2023/02/06 08:59:21;;;;;;;27.30;20.13;;;;;;;;;;5077006;28;20484;-60
2023/02/06 09:01:48;;;;;;;31.75;20.00;;;;;;;;;;5093383;28;20067;-57
2023/02/06 09:04:15;;;;;;;28.00;20.15;;;;;;;;;;5092522;28;20021;-62
2023/02/06 09:06:42;;;;;;;28.10;20.17;;;;;;;;;;5075001;28;20039;-57
2023/02/06 09:09:09;;;;;;;31.80;20.93;;;;;;;;;;5093321;28;20016;-62
2023/02/06 09:11:35;;;;;;;28.25;18.95;;;;;;;;;;5075070;28;20077;-57
2023/02/06 09:14:03;;;;;;;35.45;20.70;;;;;;;;;;5092459;28;20103;-55
2023/02/06 09:16:32;;;;;;;36.50;20.55;;;;;;;;;;5093153;28;20085;-62
2023/02/06 09:19:00;;;;;;;30.08;20.08;;;;;;;;;;5093055;28;20028;-58
2023/02/06 09:21:27;;;;;;;31.10;20.88;;;;;;;;;;5088236;28;20028;-59
2023/02/06 09:23:54;;;;;;;32.70;20.20;;;;;;;;;;5090864;28;20065;-59
2023/02/06 09:26:22;;;;;;;33.95;20.45;;;;;;;;;;5091265;28;20040;-60
2023/02/06 09:28:56;;;;;;;33.92;22.67;;;;;;;;;;5091104;28;20016;-60
2023/02/06 09:31:22;;;;;;;36.08;20.63;;;;;;;;;;5091201;28;20027;-61
2023/02/06 09:33:49;;;;;;;30.67;20.30;;;;;;;;;;5090778;28;20031;-61
2023/02/06 09:36:16;;;;;;;31.92;21.20;;;;;;;;;;5091510;28;20395;-60
2023/02/06 09:38:43;;;;;;;31.95;20.92;;;;;;;;;;5092068;28;20016;-62
2023/02/06 09:41:16;;;;;;;33.55;20.10;;;;;;;;;;5092076;28;20089;-59
2023/02/06 09:43:46;;;;;;;32.35;23.17;;;;;;;;;;5092093;28;20039;-62
2023/02/06 09:46:14;;;;;;;31.40;20.70;;;;;;;;;;5090584;28;20029;-63
2023/02/06 09:48:41;;;;;;;33.03;20.52;;;;;;;;;;5083874;28;20040;-63
2023/02/06 09:51:34;;;;;;;32.43;23.13;;;;;;;;;;5081748;28;20032;-62
2023/02/06 09:54:05;;;;;;;27.45;20.42;;;;;;;;;;5053447;28;20286;-61
2023/02/06 09:56:38;;;;;;;28.88;21.98;;;;;;;;;;5092475;28;20031;-61
2023/02/06 09:59:23;;;;;;;35.72;20.80;;;;;;;;;;5092146;28;20488;-60
2023/02/06 10:01:58;;;;;;;38.85;21.17;;;;;;;;;;5092210;28;20032;-61
2023/02/06 10:04:24;;;;;;;48.78;22.63;;;;;;;;;;5091843;28;20476;-63
2023/02/06 10:06:53;;;;;;;32.72;21.27;;;;;;;;;;5092260;28;20024;-62
2023/02/06 10:09:40;;;;;;;40.10;22.40;;;;;;;;;;5074387;28;20051;-61
2023/02/06 10:12:13;;;;;;;35.78;21.52;;;;;;;;;;5092034;28;20024;-60
2023/02/06 10:14:39;;;;;;;32.65;19.73;;;;;;;;;;5089477;28;20039;-62
2023/02/06 10:17:12;;;;;;;36.90;21.17;;;;;;;;;;5078306;28;20507;-62
2023/02/06 10:19:48;;;;;;;31.88;19.17;;;;;;;;;;5071971;28;20032;-60
2023/02/06 10:22:18;;;;;;;35.38;21.55;;;;;;;;;;5071724;28;20384;-59
2023/02/06 10:24:47;;;;;;;30.05;19.60;;;;;;;;;;5071201;28;20048;-61
2023/02/06 10:27:14;;;;;;;33.67;18.42;;;;;;;;;;5071572;28;20421;-62
2023/02/06 10:29:41;;;;;;;30.90;19.05;;;;;;;;;;5072054;28;20029;-59
2023/02/06 10:32:19;;;;;;;36.33;20.58;;;;;;;;;;5071542;28;20128;-60
2023/02/06 10:35:01;;;;;;;33.85;20.38;;;;;;;;;;5071112;28;20035;-59
2023/02/06 10:37:27;;;;;;;33.88;20.95;;;;;;;;;;5072056;28;20029;-60
2023/02/06 10:39:53;;;;;;;35.75;21.63;;;;;;;;;;5071588;28;20050;-59
2023/02/06 10:42:25;;;;;;;36.70;24.05;;;;;;;;;;5072144;28;20032;-59
2023/02/06 10:45:09;;;;;;;33.70;21.73;;;;;;;;;;5053144;28;20115;-59
2023/02/06 10:47:35;;;;;;;31.90;19.58;;;;;;;;;;5056658;28;20048;-63
2023/02/06 10:50:18;;;;;;;32.63;20.42;;;;;;;;;;5091372;28;20043;-61
2023/02/06 10:52:45;;;;;;;35.47;20.48;;;;;;;;;;5091136;28;20150;-61
2023/02/06 10:55:19;;;;;;;31.70;19.25;;;;;;;;;;5091031;28;20050;-58
2023/02/06 10:57:46;;;;;;;27.98;18.25;;;;;;;;;;5091854;28;20039;-62
2023/02/06 11:00:17;;;;;;;38.35;21.85;;;;;;;;;;5070887;28;20053;-62
2023/02/06 11:02:45;;;;;;;35.38;18.92;;;;;;;;;;5091803;28;20035;-63
2023/02/06 11:05:17;;;;;;;31.08;19.77;;;;;;;;;;5090706;28;20038;-62
2023/02/06 11:07:49;;;;;;;37.17;20.25;;;;;;;;;;5069941;28;20025;-62
2023/02/06 11:10:16;;;;;;;35.13;20.92;;;;;;;;;;5071227;28;20079;-61
2023/02/06 11:12:51;;;;;;;39.78;21.00;;;;;;;;;;5071307;28;20032;-61
2023/02/06 11:15:24;;;;;;;31.52;21.20;;;;;;;;;;5070774;28;20086;-59
2023/02/06 11:17:51;;;;;;;28.77;19.85;;;;;;;;;;5071436;28;20035;-61
2023/02/06 11:20:19;;;;;;;31.00;21.15;;;;;;;;;;5053078;28;20098;-64
2023/02/06 11:22:45;;;;;;;31.85;19.98;;;;;;;;;;5071349;28;20037;-62
2023/02/06 11:25:24;;;;;;;34.03;20.83;;;;;;;;;;5070905;28;20105;-63
2023/02/06 11:27:50;;;;;;;37.53;20.60;;;;;;;;;;5058375;28;20020;-62
2023/02/06 11:30:35;;;;;;;34.58;19.80;;;;;;;;;;5091564;28;20074;-63
2023/02/06 11:33:17;;;;;;;32.28;18.80;;;;;;;;;;5072714;28;20048;-56
2023/02/06 11:36:00;;;;;;;31.80;18.92;;;;;;;;;;5091492;28;20024;-61
2023/02/06 11:38:29;;;;;;;35.47;20.10;;;;;;;;;;5090986;28;20032;-59
2023/02/06 11:41:01;;;;;;;29.65;20.67;;;;;;;;;;5091000;28;20020;-60
2023/02/06 11:43:30;;;;;;;31.48;20.63;;;;;;;;;;5089870;28;20028;-57
2023/02/06 11:46:08;;;;;;;33.92;20.35;;;;;;;;;;5077682;28;20107;-57
2023/02/06 11:48:36;;;;;;;35.88;23.02;;;;;;;;;;5070725;28;20028;-60
2023/02/06 11:51:02;;;;;;;37.67;22.60;;;;;;;;;;5080245;28;20039;-62
2023/02/06 11:53:28;;;;;;;32.67;21.88;;;;;;;;;;5089888;28;20262;-59
2023/02/06 11:55:59;;;;;;;35.35;22.63;;;;;;;;;;4717313;28;10000110;-60
2023/02/06 11:58:26;;;;;;;32.55;21.77;;;;;;;;;;5075222;28;20093;-63
2023/02/06 12:00:53;;;;;;;32.42;20.42;;;;;;;;;;5068714;28;20478;-59
2023/02/06 12:03:29;;;;;;;35.85;21.15;;;;;;;;;;5084664;28;20515;-60
2023/02/06 12:05:57;;;;;;;33.55;20.20;;;;;;;;;;5090294;28;20020;-62
2023/02/06 12:08:25;;;;;;;34.30;20.73;;;;;;;;;;5090766;28;20403;-62
2023/02/06 12:13:27;;;;;;;36.78;20.20;;;;;;;;;;5046555;28;20413;-62
2023/02/06 12:15:56;;;;;;;34.20;21.38;;;;;;;;;;5049887;28;20033;-65
2023/02/06 12:18:27;;;;;;;39.22;20.48;;;;;;;;;;5050125;28;20082;-64
2023/02/06 12:20:58;;;;;;;35.08;19.42;;;;;;;;;;5050403;28;20075;-64
2023/02/06 12:23:37;;;;;;;35.85;19.17;;;;;;;;;;5049556;28;20025;-67
2023/02/06 12:26:06;;;;;;;41.05;19.20;;;;;;;;;;5050043;28;20031;-67
2023/02/06 12:28:32;;;;;;;42.35;21.05;;;;;;;;;;5031235;28;20253;-66
2023/02/06 12:31:03;;;;;;;33.20;19.15;;;;;;;;;;5030711;28;20029;-65
2023/02/06 12:33:35;;;;;;;39.70;19.02;;;;;;;;;;5028776;28;20029;-66
2023/02/06 12:36:14;;;;;;;34.63;18.90;;;;;;;;;;5012157;28;20055;-67
2023/02/06 12:38:55;;;;;;;31.75;18.75;;;;;;;;;;5030799;28;20040;-67
2023/02/06 12:41:39;;;;;;;36.88;18.40;;;;;;;;;;5011025;28;20354;-65
2023/02/06 12:44:20;;;;;;;30.35;18.02;;;;;;;;;;5029390;28;20471;-65
2023/02/06 12:46:48;;;;;;;28.65;17.40;;;;;;;;;;5031196;28;20044;-65
2023/02/06 12:49:19;;;;;;;32.40;15.82;;;;;;;;;;5047907;28;20021;-65
2023/02/06 12:51:51;;;;;;;26.58;16.35;;;;;;;;;;5039374;28;20073;-65
2023/02/06 12:54:24;;;;;;;27.40;15.52;;;;;;;;;;5071796;28;20032;-65
2023/02/06 12:56:52;;;;;;;23.00;14.98;;;;;;;;;;5071957;28;20043;-66
2023/02/06 12:59:39;;;;;;;25.92;15.70;;;;;;;;;;5071997;28;20556;-65
2023/02/06 13:02:09;;;;;;;29.10;16.35;;;;;;;;;;5065355;28;20029;-65
2023/02/06 13:04:36;;;;;;;27.35;16.02;;;;;;;;;;5037113;28;20053;-66
2023/02/06 13:07:02;;;;;;;27.73;15.52;;;;;;;;;;5051885;28;20114;-66
2023/02/06 13:09:31;;;;;;;31.35;16.02;;;;;;;;;;5051945;28;20096;-66
2023/02/06 13:12:18;;;;;;;28.17;16.30;;;;;;;;;;5051756;28;20044;-65
2023/02/06 13:14:47;;;;;;;25.45;15.93;;;;;;;;;;5050341;28;20100;-66
2023/02/06 13:17:19;;;;;;;30.02;16.52;;;;;;;;;;5051696;28;20036;-66
2023/02/06 13:19:45;;;;;;;25.30;16.33;;;;;;;;;;5049706;28;20118;-66
2023/02/06 13:22:12;;;;;;;29.00;17.88;;;;;;;;;;5050147;28;20028;-66
2023/02/06 13:24:42;;;;;;;28.58;16.55;;;;;;;;;;5048837;28;20280;-66
2023/02/06 13:27:08;;;;;;;30.30;16.40;;;;;;;;;;5050958;28;20032;-65
2023/02/06 13:29:40;;;;;;;29.67;16.60;;;;;;;;;;5051213;28;20025;-67
2023/02/06 13:32:17;;;;;;;31.13;17.40;;;;;;;;;;5049762;28;20032;-65
2023/02/06 13:34:43;;;;;;;27.58;17.27;;;;;;;;;;5030425;28;20022;-66
2023/02/06 13:37:27;;;;;;;24.77;16.45;;;;;;;;;;5048130;28;20044;-66
2023/02/06 13:40:12;;;;;;;24.65;16.27;;;;;;;;;;5051199;28;20102;-64
2023/02/06 13:42:38;;;;;;;27.65;16.15;;;;;;;;;;5050852;28;20051;-65
2023/02/06 13:45:05;;;;;;;36.33;20.45;;;;;;;;;;5031248;28;20424;-64
2023/02/06 13:47:40;;;;;;;31.25;18.58;;;;;;;;;;5050832;28;20315;-64
2023/02/06 13:50:38;;;;;;;32.35;17.67;;;;;;;;;;5049882;28;20021;-64
2023/02/06 13:53:23;;;;;;;27.50;16.70;;;;;;;;;;4986833;28;20045;-65
2023/02/06 13:56:07;;;;;;;100.60;63.03;;;;;;;;;;5012975;28;20097;-66
2023/02/06 13:58:47;;;;;;;48.15;32.88;;;;;;;;;;5012981;28;20032;-66
2023/02/06 14:01:21;;;;;;;37.95;26.48;;;;;;;;;;5030682;28;20055;-66
2023/02/06 14:03:49;;;;;;;37.05;22.20;;;;;;;;;;5037331;28;20051;-66
2023/02/06 14:06:30;;;;;;;26.98;16.58;;;;;;;;;;5050052;28;20021;-66
2023/02/06 14:08:56;;;;;;;28.45;15.70;;;;;;;;;;5050566;28;20075;-66
2023/02/06 14:11:36;;;;;;;24.48;15.63;;;;;;;;;;5032167;28;20075;-66
2023/02/06 14:14:17;;;;;;;27.25;14.98;;;;;;;;;;5049533;28;20049;-65
2023/02/06 14:17:01;;;;;;;27.55;15.00;;;;;;;;;;5049907;28;20032;-67
2023/02/06 14:19:47;;;;;;;28.33;15.63;;;;;;;;;;5030046;28;20029;-65
2023/02/06 14:22:26;;;;;;;30.95;17.05;;;;;;;;;;5029933;28;20533;-66
2023/02/06 14:25:02;;;;;;;27.88;15.77;;;;;;;;;;5029352;28;20502;-65
2023/02/06 14:27:31;;;;;;;29.20;15.63;;;;;;;;;;5012816;28;20021;-66
2023/02/06 14:29:57;;;;;;;28.60;15.68;;;;;;;;;;5030357;28;20026;-65
2023/02/06 14:32:24;;;;;;;27.73;15.48;;;;;;;;;;5031259;28;20419;-65